createdAt,value
2024-05-09T00:00:38.650Z,99987.97
2024-05-09T00:03:08.601Z,99988.56
2024-05-09T00:05:37.075Z,99993.34
2024-05-09T00:08:04.963Z,99995.47
2024-05-09T00:10:37.090Z,100001.03
2024-05-09T00:13:07.235Z,99998.69
2024-05-09T00:15:35.317Z,99994.47
2024-05-09T00:18:04.545Z,99986.38
2024-05-09T00:20:37.971Z,99986.63
2024-05-09T00:23:09.680Z,99979.81
2024-05-09T00:25:38.644Z,99980.88
2024-05-09T00:28:06.329Z,99983.78
2024-05-09T00:30:36.103Z,99983.00
2024-05-09T00:33:06.844Z,99981.75
2024-05-09T00:35:35.549Z,99977.53
2024-05-09T00:38:03.333Z,99979.69
2024-05-09T00:40:41.193Z,99971.78
2024-05-09T00:43:12.528Z,99972.03
2024-05-09T00:45:40.733Z,99966.28
2024-05-09T00:48:10.501Z,99963.94
2024-05-09T00:50:43.069Z,99966.88
2024-05-09T00:53:12.093Z,99970.56
2024-05-09T00:55:41.271Z,99964.22
2024-05-09T00:58:12.491Z,99955.34
2024-05-09T01:00:41.589Z,99964.28
2024-05-09T01:03:13.814Z,99959.00
2024-05-09T01:05:43.920Z,99955.13
2024-05-09T01:08:13.130Z,99950.63
2024-05-09T01:10:43.722Z,99952.75
2024-05-09T01:13:13.260Z,99943.28
2024-05-09T01:15:40.395Z,99945.16
2024-05-09T01:18:11.694Z,99938.31
2024-05-09T01:20:43.080Z,99945.41
2024-05-09T01:23:14.394Z,99943.09
2024-05-09T01:25:43.757Z,99946.00
2024-05-09T01:28:11.049Z,99948.34
2024-05-09T01:30:38.701Z,99947.06
2024-05-09T01:33:08.865Z,99942.88
2024-05-09T01:35:38.571Z,99948.13
2024-05-09T01:38:06.302Z,99950.00
2024-05-09T01:40:38.794Z,99950.78
2024-05-09T01:43:09.446Z,99959.25
2024-05-09T01:45:38.481Z,99961.09
2024-05-09T01:48:06.539Z,99964.81
2024-05-09T01:50:39.355Z,99970.06
2024-05-09T01:53:11.681Z,99970.06
2024-05-09T01:55:39.223Z,99966.16
2024-05-09T01:58:06.434Z,99967.22
2024-05-09T02:00:39.109Z,99969.06
2024-05-09T02:03:13.339Z,99969.06
2024-05-09T02:05:44.586Z,99964.38
2024-05-09T02:08:18.070Z,99963.59
2024-05-09T02:10:47.470Z,99957.81
2024-05-09T02:13:16.361Z,99961.78
2024-05-09T02:15:43.822Z,99969.22
2024-05-09T02:18:12.822Z,99965.78
2024-05-09T02:20:41.732Z,99960.00
2024-05-09T02:23:09.960Z,99971.63
2024-05-09T02:25:37.506Z,99964.00
2024-05-09T02:28:04.992Z,99970.31
2024-05-09T02:30:39.179Z,99968.00
2024-05-09T02:33:11.819Z,99971.19
2024-05-09T02:35:41.442Z,99975.66
2024-05-09T02:38:12.747Z,99974.88
2024-05-09T02:40:40.862Z,99972.53
2024-05-09T02:43:12.526Z,99964.91
2024-05-09T02:45:40.713Z,99967.03
2024-05-09T02:48:11.706Z,99966.75
2024-05-09T02:50:40.319Z,99970.75
2024-05-09T02:53:09.299Z,99961.25
2024-05-09T02:55:38.477Z,99972.88
2024-05-09T02:58:08.670Z,99968.69
2024-05-09T03:00:39.809Z,99981.84
2024-05-09T03:03:13.139Z,99982.91
2024-05-09T03:05:43.877Z,99982.91
2024-05-09T03:08:12.510Z,99981.63
2024-05-09T03:10:40.327Z,99980.84
2024-05-09T03:13:12.159Z,99989.00
2024-05-09T03:15:40.220Z,99990.06
2024-05-09T03:18:07.620Z,99993.47
2024-05-09T03:20:36.314Z,99989.78
2024-05-09T03:23:06.001Z,100000.59
2024-05-09T03:25:34.407Z,99999.53
2024-05-09T03:28:01.791Z,99997.19
2024-05-09T03:30:39.066Z,100000.88
2024-05-09T03:33:16.241Z,99998.53
2024-05-09T03:35:44.456Z,99992.19
2024-05-09T03:38:11.867Z,99996.41
2024-05-09T03:40:48.542Z,99990.06
2024-05-09T03:43:16.998Z,100001.38
2024-05-09T03:45:45.137Z,100001.66
2024-05-09T03:48:12.747Z,100000.88
2024-05-09T03:50:40.686Z,100001.94
2024-05-09T03:53:11.299Z,100007.72
2024-05-09T03:55:39.186Z,100001.13
2024-05-09T03:58:06.656Z,100000.31
2024-05-09T04:00:39.324Z,100006.88
2024-05-09T04:03:10.932Z,100010.28
2024-05-09T04:05:42.324Z,100003.44
2024-05-09T04:08:13.027Z,100002.13
2024-05-09T04:10:41.776Z,100009.72
2024-05-09T04:13:10.285Z,100003.91
2024-05-09T04:15:37.466Z,100005.19
2024-05-09T04:18:04.999Z,100007.25
2024-05-09T04:20:38.133Z,100016.44
2024-05-09T04:23:11.936Z,100008.53
2024-05-09T04:25:43.620Z,100008.53
2024-05-09T04:28:11.083Z,100009.59
2024-05-09T04:30:40.726Z,100021.69
2024-05-09T04:33:11.894Z,100012.75
2024-05-09T04:35:44.362Z,100021.91
2024-05-09T04:38:13.815Z,100007.72
2024-05-09T04:40:41.609Z,100011.13
2024-05-09T04:43:15.353Z,100008.75
2024-05-09T04:45:43.302Z,100017.72
2024-05-09T04:48:10.611Z,100016.09
2024-05-09T04:50:39.574Z,100023.66
2024-05-09T04:53:14.849Z,100017.75
2024-05-09T04:55:42.500Z,100012.91
2024-05-09T04:58:10.191Z,100019.13
2024-05-09T05:00:39.719Z,100012.72
2024-05-09T05:03:11.935Z,100016.94
2024-05-09T05:05:41.881Z,100020.47
2024-05-09T05:08:17.044Z,100026.69
2024-05-09T05:10:45.824Z,100029.94
2024-05-09T05:13:14.406Z,100035.84
2024-05-09T05:15:41.552Z,100043.03
2024-05-09T05:18:08.829Z,100042.91
2024-05-09T05:20:36.445Z,100039.53
2024-05-09T05:23:03.664Z,100042.31
2024-05-09T05:25:30.759Z,100038.81
2024-05-09T05:27:57.865Z,100049.41
2024-05-09T05:30:28.907Z,100059.69
2024-05-09T05:33:00.602Z,100059.41
2024-05-09T05:35:28.841Z,100065.09
2024-05-09T05:37:56.072Z,100064.38
2024-05-09T05:40:32.217Z,100064.19
2024-05-09T05:43:06.378Z,100063.38
2024-05-09T05:45:33.531Z,100065.81
2024-05-09T05:48:04.048Z,100064.63
2024-05-09T05:50:36.022Z,100067.66
2024-05-09T05:53:09.017Z,100065.31
2024-05-09T05:55:41.063Z,100072.75
2024-05-09T05:58:12.310Z,100073.31
2024-05-09T06:00:42.212Z,100068.94
2024-05-09T06:03:12.755Z,100061.78
2024-05-09T06:05:41.283Z,100071.19
2024-05-09T06:08:09.210Z,100074.47
2024-05-09T06:10:39.574Z,100078.47
2024-05-09T06:13:08.916Z,100071.66
2024-05-09T06:15:36.098Z,100077.47
2024-05-09T06:18:06.488Z,100079.81
2024-05-09T06:20:36.729Z,100083.47
2024-05-09T06:23:09.873Z,100082.38
2024-05-09T06:25:38.163Z,100088.69
2024-05-09T06:28:05.738Z,100092.38
2024-05-09T06:30:39.173Z,100099.22
2024-05-09T06:33:11.184Z,100103.78
2024-05-09T06:35:40.421Z,100096.00
2024-05-09T06:38:07.844Z,100091.31
2024-05-09T06:40:38.455Z,100093.22
2024-05-09T06:43:15.424Z,100092.19
2024-05-09T06:45:44.197Z,100096.13
2024-05-09T06:48:11.906Z,100098.28
2024-05-09T06:50:40.538Z,100104.72
2024-05-09T06:53:08.898Z,100093.94
2024-05-09T06:55:37.469Z,100100.19
2024-05-09T06:58:08.961Z,100098.34
2024-05-09T07:00:40.652Z,100093.81
2024-05-09T07:03:15.350Z,100101.16
2024-05-09T07:05:46.236Z,100095.28
2024-05-09T07:08:14.356Z,100097.59
2024-05-09T07:10:42.029Z,100092.13
2024-05-09T07:13:13.928Z,100099.69
2024-05-09T07:15:42.644Z,100092.16
2024-05-09T07:18:18.570Z,100096.06
2024-05-09T07:21:12.128Z,100094.81
2024-05-09T07:23:40.697Z,100096.81
2024-05-09T07:26:08.555Z,100097.25
2024-05-09T07:28:35.711Z,100100.66
2024-05-09T07:31:02.867Z,100089.47
2024-05-09T07:33:30.190Z,100095.44
2024-05-09T07:35:57.753Z,100092.28
2024-05-09T07:38:24.950Z,100097.88
2024-05-09T07:40:52.527Z,100095.97
2024-05-09T07:43:19.699Z,100099.91
2024-05-09T07:45:52.620Z,100103.16
2024-05-09T07:52:37.993Z,100102.28
2024-05-09T07:53:49.169Z,100098.19
2024-05-09T07:56:21.921Z,100097.16
2024-05-09T07:58:51.921Z,100092.94
2024-05-09T08:01:20.506Z,100099.91
2024-05-09T08:03:50.010Z,100096.16
2024-05-09T08:06:18.399Z,100091.00
2024-05-09T08:08:49.210Z,100096.66
2024-05-09T08:11:17.392Z,100085.56
2024-05-09T08:13:44.514Z,100096.31
2024-05-09T08:16:14.566Z,100084.50
2024-05-09T08:18:42.156Z,100095.53
2024-05-09T08:21:09.459Z,100093.66
2024-05-09T08:23:36.573Z,100095.00
2024-05-09T08:26:03.906Z,100094.44
2024-05-09T08:28:31.696Z,100096.78
2024-05-09T08:30:59.659Z,100096.06
2024-05-09T08:33:27.873Z,100089.66
2024-05-09T08:35:54.991Z,100093.13
2024-05-09T08:38:22.270Z,100085.72
2024-05-09T08:40:49.837Z,100080.94
2024-05-09T08:43:20.476Z,100080.63
2024-05-09T08:45:49.682Z,100075.75
2024-05-09T08:48:19.916Z,100080.09
2024-05-09T08:53:18.408Z,100086.13
2024-05-09T08:55:50.920Z,100079.22
2024-05-09T08:58:19.546Z,100072.00
2024-05-09T09:00:48.672Z,100065.97
2024-05-09T09:03:19.393Z,100073.78
2024-05-09T09:05:57.087Z,100070.78
2024-05-09T09:08:25.993Z,100068.59
2024-05-09T09:10:57.806Z,100074.56
2024-05-09T09:13:25.711Z,100085.56
2024-05-09T09:15:52.955Z,100081.56
2024-05-09T09:18:20.250Z,100075.56
2024-05-09T09:20:47.504Z,100081.38
2024-05-09T09:23:14.830Z,100068.03
2024-05-09T09:25:42.297Z,100068.34
2024-05-09T09:28:09.989Z,100066.38
2024-05-09T09:30:41.255Z,100066.81
2024-05-09T09:33:10.332Z,100066.16
2024-05-09T09:35:40.732Z,100063.34
2024-05-09T09:38:09.220Z,100065.00
2024-05-09T09:40:42.854Z,100058.84
2024-05-09T09:43:21.983Z,100057.25
2024-05-09T09:45:51.687Z,100066.84
2024-05-09T09:48:20.497Z,100063.16
2024-05-09T09:50:49.183Z,100054.91
2024-05-09T09:53:17.276Z,100062.28
2024-05-09T09:55:46.216Z,100051.63
2024-05-09T09:58:16.616Z,100050.94
2024-05-09T10:00:44.852Z,100055.38
2024-05-09T10:03:12.258Z,100059.13
2024-05-09T10:05:43.050Z,100056.75
2024-05-09T10:08:13.454Z,100055.88
2024-05-09T10:10:46.758Z,100045.78
2024-05-09T10:13:14.312Z,100048.19
2024-05-09T10:15:52.871Z,100048.91
2024-05-09T10:18:21.696Z,100046.97
2024-05-09T10:20:49.045Z,100051.13
2024-05-09T10:23:30.909Z,100042.13
2024-05-09T10:26:03.001Z,100045.06
2024-05-09T10:28:33.298Z,100032.34
2024-05-09T10:31:11.128Z,100041.63
2024-05-09T10:33:40.783Z,100043.34
2024-05-09T10:36:12.395Z,100040.03
2024-05-09T10:38:41.906Z,100034.03
2024-05-09T10:41:09.511Z,100035.13
2024-05-09T10:43:39.832Z,100038.78
2024-05-09T10:46:08.135Z,100039.44
2024-05-09T10:48:40.112Z,100027.81
2024-05-09T10:51:09.176Z,100026.53
2024-05-09T10:53:45.812Z,100027.91
2024-05-09T10:56:17.229Z,100022.38
2024-05-09T10:58:44.767Z,100011.34
2024-05-09T11:01:14.011Z,100010.47
2024-05-09T11:03:47.559Z,100016.28
2024-05-09T11:06:16.318Z,100010.88
2024-05-09T11:08:45.310Z,100002.63
2024-05-09T11:11:13.154Z,100006.97
2024-05-09T11:13:41.124Z,100010.47
2024-05-09T11:16:19.746Z,100004.53
2024-05-09T11:18:57.995Z,100001.88
2024-05-09T11:21:26.567Z,100005.53
2024-05-09T11:23:53.670Z,100005.22
2024-05-09T11:26:22.949Z,100008.22
2024-05-09T11:28:50.176Z,100010.09
2024-05-09T11:31:17.661Z,100015.13
2024-05-09T11:33:45.300Z,100002.06
2024-05-09T11:39:03.656Z,99989.59
2024-05-09T11:41:31.060Z,99985.22
2024-05-09T11:43:58.281Z,99984.28
2024-05-09T11:46:25.831Z,99982.25
2024-05-09T11:48:53.447Z,99982.44
2024-05-09T11:51:22.194Z,99985.19
2024-05-09T11:53:49.569Z,99982.16
2024-05-09T11:56:17.033Z,99978.47
2024-05-09T11:58:44.164Z,99983.81
2024-05-09T12:01:11.373Z,99981.41
2024-05-09T12:03:38.733Z,99985.97
2024-05-09T12:06:06.648Z,99978.91
2024-05-09T12:08:34.018Z,99968.56
2024-05-09T12:11:02.229Z,99969.53
2024-05-09T12:13:29.884Z,99961.16
2024-05-09T12:15:57.074Z,99962.09
2024-05-09T12:18:25.136Z,99963.66
2024-05-09T12:20:52.352Z,99959.16
2024-05-09T12:23:20.061Z,99956.25
2024-05-09T12:25:47.309Z,99958.31
2024-05-09T12:28:16.128Z,99955.97
2024-05-09T12:30:43.476Z,99956.94
2024-05-09T12:33:12.638Z,99949.00
2024-05-09T12:35:44.315Z,99953.31
2024-05-09T12:38:15.361Z,99950.09
2024-05-09T12:40:43.369Z,99958.47
2024-05-09T12:43:11.517Z,99942.53
2024-05-09T12:45:40.341Z,99939.34
2024-05-09T12:48:09.142Z,99939.50
2024-05-09T12:50:37.103Z,99934.78
2024-05-09T12:53:05.519Z,99932.69
2024-05-09T12:55:40.770Z,99936.56
2024-05-09T12:58:16.825Z,99931.22
2024-05-09T13:00:45.488Z,99919.38
2024-05-09T13:03:13.398Z,99921.44
2024-05-09T13:05:41.338Z,99923.69
2024-05-09T13:08:10.902Z,99927.84
2024-05-09T13:10:38.057Z,99917.56
2024-05-09T13:13:05.441Z,99908.00
2024-05-09T13:15:34.556Z,99914.31
2024-05-09T13:18:03.581Z,99917.69
2024-05-09T13:20:34.516Z,99916.63
2024-05-09T13:23:05.397Z,99907.09
2024-05-09T13:25:33.973Z,99908.97
2024-05-09T13:28:01.343Z,99903.34
2024-05-09T13:30:37.303Z,99905.41
2024-05-09T13:33:07.643Z,99913.50
2024-05-09T13:35:35.972Z,99902.13
2024-05-09T13:38:04.865Z,99898.94
2024-05-09T13:40:35.174Z,99900.66
2024-05-09T13:43:07.229Z,99896.84
2024-05-09T13:45:35.351Z,99893.03
2024-05-09T13:48:02.933Z,99885.88
2024-05-09T13:50:34.826Z,99887.00
2024-05-09T13:53:07.905Z,99878.69
2024-05-09T13:55:40.172Z,99877.31
2024-05-09T13:58:08.719Z,99880.44
2024-05-09T14:00:44.619Z,99883.44
2024-05-09T14:03:19.144Z,99885.69
2024-05-09T14:05:49.757Z,99882.16
2024-05-09T14:08:18.333Z,99877.50
2024-05-09T14:10:49.384Z,99873.63
2024-05-09T14:13:17.361Z,99862.94
2024-05-09T14:15:46.755Z,99860.25
2024-05-09T14:18:14.748Z,99864.25
2024-05-09T14:20:43.271Z,99862.16
2024-05-09T14:23:11.210Z,99859.50
2024-05-09T14:25:41.491Z,99856.88
2024-05-09T14:28:13.094Z,99861.97
2024-05-09T14:30:41.776Z,99869.13
2024-05-09T14:33:09.842Z,99855.41
2024-05-09T14:35:38.918Z,99859.97
2024-05-09T14:38:07.254Z,99856.88
2024-05-09T14:40:42.411Z,99847.31
2024-05-09T14:43:13.739Z,99849.56
2024-05-09T14:45:41.892Z,99856.88
2024-05-09T14:48:10.412Z,99847.72
2024-05-09T14:50:40.089Z,99849.72
2024-05-09T14:53:10.162Z,99854.91
2024-05-09T14:55:40.475Z,99847.66
2024-05-09T14:58:10.291Z,99846.38
2024-05-09T15:00:42.399Z,99844.84
2024-05-09T15:03:13.329Z,99844.78
2024-05-09T15:05:40.939Z,99842.88
2024-05-09T15:08:08.687Z,99839.00
2024-05-09T15:10:37.306Z,99837.09
2024-05-09T15:13:07.893Z,99826.06
2024-05-09T15:15:38.246Z,99833.66
2024-05-09T15:18:06.171Z,99826.81
2024-05-09T15:20:36.695Z,99836.81
2024-05-09T15:23:06.563Z,99828.47
2024-05-09T15:25:36.316Z,99828.47
2024-05-09T15:28:06.487Z,99825.06
2024-05-09T15:30:34.726Z,99820.84
2024-05-09T15:33:02.459Z,99822.47
2024-05-09T15:35:29.767Z,99816.63
2024-05-09T15:37:57.216Z,99813.47
2024-05-09T15:40:34.848Z,99811.63
2024-05-09T15:43:08.154Z,99805.44
2024-05-09T15:45:36.090Z,99806.63
2024-05-09T15:48:04.292Z,99808.19
2024-05-09T15:50:37.647Z,99807.84
2024-05-09T15:53:12.263Z,99819.72
2024-05-09T15:55:40.579Z,99808.31
2024-05-09T15:58:08.454Z,99806.78
2024-05-09T16:00:39.855Z,99792.97
2024-05-09T16:03:11.117Z,99807.47
2024-05-09T16:05:39.381Z,99801.34
2024-05-09T16:08:08.377Z,99807.84
2024-05-09T16:10:38.685Z,99802.84
2024-05-09T16:13:06.599Z,99808.25
2024-05-09T16:15:34.029Z,99807.06
2024-05-09T16:18:01.331Z,99800.66
2024-05-09T16:20:37.047Z,99803.34
2024-05-09T16:23:08.594Z,99806.44
2024-05-09T16:25:36.732Z,99801.06
2024-05-09T16:28:08.361Z,99791.59
2024-05-09T16:30:40.780Z,99797.31
2024-05-09T16:33:08.826Z,99798.09
2024-05-09T16:35:38.293Z,99803.31
2024-05-09T16:38:06.569Z,99801.50
2024-05-09T16:40:38.657Z,99798.28
2024-05-09T16:43:13.021Z,99800.00
2024-05-09T16:45:42.067Z,99801.25
2024-05-09T16:48:09.609Z,99796.88
2024-05-09T16:50:37.792Z,99797.41
2024-05-09T16:53:06.603Z,99803.66
2024-05-09T16:55:35.161Z,99797.72
2024-05-09T16:58:06.258Z,99803.53
2024-05-09T17:00:40.638Z,99803.94
2024-05-09T17:03:13.190Z,99802.25
2024-05-09T17:05:42.430Z,99808.81
2024-05-09T17:08:10.169Z,99800.19
2024-05-09T17:10:38.268Z,99798.47
2024-05-09T17:13:07.393Z,99795.56
2024-05-09T17:15:37.718Z,99799.19
2024-05-09T17:18:07.072Z,99791.41
2024-05-09T17:20:36.958Z,99801.59
2024-05-09T17:23:06.561Z,99797.63
2024-05-09T17:25:34.349Z,99804.00
2024-05-09T17:28:02.331Z,99800.41
2024-05-09T17:30:35.333Z,99800.31
2024-05-09T17:33:06.885Z,99805.56
2024-05-09T17:35:36.285Z,99800.13
2024-05-09T17:38:04.691Z,99804.50
2024-05-09T17:40:35.743Z,99796.06
2024-05-09T17:43:06.348Z,99800.19
2024-05-09T17:45:35.900Z,99803.88
2024-05-09T17:48:04.391Z,99807.59
2024-05-09T17:50:35.664Z,99805.59
2024-05-09T17:53:06.159Z,99806.59
2024-05-09T17:55:33.904Z,99808.72
2024-05-09T17:58:01.902Z,99811.50
2024-05-09T18:00:37.286Z,99813.66
2024-05-09T18:03:09.192Z,99817.34
2024-05-09T18:05:37.388Z,99805.03
2024-05-09T18:08:07.008Z,99814.72
2024-05-09T18:10:38.060Z,99812.63
2024-05-09T18:13:09.305Z,99816.31
2024-05-09T18:15:38.545Z,99814.97
2024-05-09T18:18:07.191Z,99812.47
2024-05-09T18:20:42.286Z,99814.13
2024-05-09T18:23:17.998Z,99810.16
2024-05-09T18:25:48.312Z,99811.59
2024-05-09T18:28:16.922Z,99816.81
2024-05-09T18:30:44.615Z,99818.81
2024-05-09T18:33:12.575Z,99819.50
2024-05-09T18:35:43.102Z,99829.66
2024-05-09T18:38:10.670Z,99829.88
2024-05-09T18:40:40.152Z,99819.78
2024-05-09T18:43:09.482Z,99833.44
2024-05-09T18:45:38.623Z,99832.84
2024-05-09T18:48:08.937Z,99831.53
2024-05-09T18:50:40.348Z,99834.63
2024-05-09T18:53:11.347Z,99835.94
2024-05-09T18:55:42.203Z,99841.47
2024-05-09T18:58:09.690Z,99853.44
2024-05-09T19:00:40.447Z,99854.31
2024-05-09T19:03:13.651Z,99852.81
2024-05-09T19:05:43.875Z,99848.69
2024-05-09T19:08:13.453Z,99855.44
2024-05-09T19:10:41.720Z,99853.75
2024-05-09T19:13:12.915Z,99855.81
2024-05-09T19:15:43.785Z,99866.06
2024-05-09T19:18:14.194Z,99865.81
2024-05-09T19:20:43.197Z,99872.84
2024-05-09T19:23:12.720Z,99879.13
2024-05-09T19:25:40.592Z,99878.88
2024-05-09T19:28:08.565Z,99888.13
2024-05-09T19:30:41.107Z,99886.13
2024-05-09T19:33:13.974Z,99884.44
2024-05-09T19:35:43.832Z,99888.53
2024-05-09T19:38:12.354Z,99887.28
2024-05-09T19:40:41.306Z,99891.81
2024-05-09T19:43:09.686Z,99888.38
2024-05-09T19:45:37.403Z,99889.31
2024-05-09T19:48:07.356Z,99905.91
2024-05-09T19:50:41.739Z,99905.75
2024-05-09T19:53:15.309Z,99906.56
2024-05-09T19:55:44.599Z,99905.63
2024-05-09T19:58:13.201Z,99909.38
2024-05-09T20:00:43.149Z,99902.84
2024-05-09T20:03:13.172Z,99914.56
2024-05-09T20:05:43.355Z,99912.41
2024-05-09T20:08:11.533Z,99903.22
2024-05-09T20:10:39.489Z,99910.69
2024-05-09T20:13:08.595Z,99912.88
2024-05-09T20:15:37.652Z,99911.34
2024-05-09T20:18:07.522Z,99908.88
2024-05-09T20:20:39.716Z,99905.75
2024-05-09T20:23:11.968Z,99908.72
2024-05-09T20:25:40.131Z,99915.13
2024-05-09T20:28:08.941Z,99914.19
2024-05-09T20:30:37.478Z,99920.59
2024-05-09T20:33:09.168Z,99915.91
2024-05-09T20:35:39.333Z,99916.84
2024-05-09T20:38:07.619Z,99917.06
2024-05-09T20:40:38.615Z,99911.75
2024-05-09T20:43:12.015Z,99920.22
2024-05-09T20:45:40.728Z,99921.91
2024-05-09T20:48:09.451Z,99927.56
2024-05-09T20:50:40.586Z,99934.25
2024-05-09T20:53:11.637Z,99933.00
2024-05-09T20:55:39.282Z,99927.84
2024-05-09T20:58:06.579Z,99933.63
2024-05-09T21:00:39.988Z,99931.41
2024-05-09T21:03:11.687Z,99933.41
2024-05-09T21:05:40.093Z,99933.03
2024-05-09T21:08:07.922Z,99932.22
2024-05-09T21:10:37.110Z,99934.66
2024-05-09T21:13:06.362Z,99933.09
2024-05-09T21:15:34.477Z,99930.53
2024-05-09T21:18:02.087Z,99930.00
2024-05-09T21:20:31.848Z,99934.78
2024-05-09T21:23:01.873Z,99939.72
2024-05-09T21:25:29.742Z,99947.56
2024-05-09T21:27:57.154Z,99951.13
2024-05-09T21:32:54.778Z,99948.69
2024-05-09T21:35:21.939Z,99944.59
2024-05-09T21:37:49.151Z,99954.03
2024-05-09T21:40:26.644Z,99951.69
2024-05-09T21:43:00.236Z,99954.44
2024-05-09T21:45:27.757Z,99955.66
2024-05-09T21:47:55.221Z,99954.66
2024-05-09T21:50:28.393Z,99952.44
2024-05-09T21:53:03.343Z,99953.81
2024-05-09T21:55:30.430Z,99951.44
2024-05-09T21:57:57.699Z,99953.44
2024-05-09T22:00:32.736Z,99956.47
2024-05-09T22:03:05.038Z,99955.13
2024-05-09T22:05:32.736Z,99955.19
2024-05-09T22:08:00.840Z,99965.31
2024-05-09T22:10:33.772Z,99960.41
2024-05-09T22:13:07.695Z,99966.38
2024-05-09T22:15:37.556Z,99969.44
2024-05-09T22:18:06.688Z,99971.88
2024-05-09T22:20:38.452Z,99973.22
2024-05-09T22:23:09.087Z,99973.50
2024-05-09T22:25:37.527Z,99972.91
2024-05-09T22:28:05.786Z,99978.63
2024-05-09T22:30:37.326Z,99976.06
2024-05-09T22:33:08.483Z,99984.84
2024-05-09T22:35:36.991Z,99988.19
2024-05-09T22:38:04.368Z,99987.78
2024-05-09T22:40:42.227Z,99980.44
2024-05-09T22:43:23.773Z,99988.41
2024-05-09T22:45:55.971Z,99978.72
2024-05-09T22:48:25.650Z,99987.00
2024-05-09T22:50:53.750Z,99986.22
2024-05-09T22:53:25.451Z,99977.03
2024-05-09T22:55:53.487Z,99982.59
2024-05-09T22:58:20.934Z,99981.03
2024-05-09T23:00:48.648Z,99974.56
2024-05-09T23:03:16.171Z,99978.38
2024-05-09T23:05:43.371Z,99980.28
2024-05-09T23:08:10.528Z,99984.34
2024-05-09T23:10:38.455Z,99983.06
2024-05-09T23:13:07.687Z,99980.78
2024-05-09T23:15:37.230Z,99985.06
2024-05-09T23:18:05.412Z,99982.22
2024-05-09T23:20:37.708Z,99988.38
2024-05-09T23:23:11.599Z,99978.97
2024-05-09T23:25:41.116Z,99980.38
2024-05-09T23:28:08.700Z,99975.22
2024-05-09T23:30:39.379Z,99971.53
2024-05-09T23:33:10.870Z,99978.75
2024-05-09T23:35:39.402Z,99973.97
2024-05-09T23:38:06.549Z,99978.25
2024-05-09T23:40:38.818Z,99973.06
2024-05-09T23:43:10.797Z,99972.63
2024-05-09T23:45:38.893Z,99967.91
2024-05-09T23:48:06.727Z,99973.25
2024-05-09T23:50:37.350Z,99973.03
2024-05-09T23:53:08.183Z,99967.56
2024-05-09T23:55:36.791Z,99962.28
2024-05-09T23:58:04.278Z,99965.25
